createdAt,value
2023-04-16T00:01:10.901Z,98559.03
2023-04-16T00:06:13.734Z,98557.34
2023-04-16T00:11:16.509Z,98567.59
2023-04-16T00:16:20.626Z,98577.25
2023-04-16T00:21:23.644Z,98585.13
2023-04-16T00:26:26.967Z,98599.34
2023-04-16T00:31:33.487Z,98584.59
2023-04-16T00:36:39.344Z,98590.00
2023-04-16T00:41:42.204Z,98590.00
2023-04-16T00:46:47.212Z,98591.59
2023-04-16T00:51:50.250Z,98584.91
2023-04-16T00:56:53.037Z,98592.16
2023-04-16T01:01:57.366Z,98589.63
2023-04-16T01:07:00.197Z,98599.38
2023-04-16T01:12:03.494Z,98595.53
2023-04-16T01:17:07.592Z,98602.22
2023-04-16T01:22:11.665Z,98601.19
2023-04-16T01:27:14.813Z,98606.81
2023-04-16T01:32:17.579Z,98607.25
2023-04-16T01:37:21.867Z,98614.13
2023-04-16T01:42:24.565Z,98616.78
2023-04-16T01:47:27.574Z,98610.63
2023-04-16T01:52:31.969Z,98615.19
2023-04-16T01:57:34.796Z,98601.94
2023-04-16T02:02:39.704Z,98605.31
2023-04-16T02:07:44.245Z,98606.28
2023-04-16T02:12:47.576Z,98613.06
2023-04-16T02:17:54.927Z,98609.47
2023-04-16T02:22:59.825Z,98612.75
2023-04-16T02:28:03.165Z,98619.75
2023-04-16T02:33:14.038Z,98611.88
2023-04-16T02:38:28.501Z,98612.09
2023-04-16T02:43:31.646Z,98607.03
2023-04-16T02:48:34.513Z,98606.16
2023-04-16T02:53:38.665Z,98610.63
2023-04-16T02:58:41.556Z,98600.03
2023-04-16T03:03:44.432Z,98602.91
2023-04-16T03:08:48.652Z,98604.81
2023-04-16T03:13:51.866Z,98604.59
2023-04-16T03:18:54.568Z,98621.47
2023-04-16T03:23:58.633Z,98612.75
2023-04-16T03:29:02.476Z,98627.81
2023-04-16T03:34:07.268Z,98630.69
2023-04-16T03:39:12.390Z,98629.06
2023-04-16T03:44:15.527Z,98636.28
2023-04-16T03:49:18.695Z,98641.59
2023-04-16T03:54:23.140Z,98641.72
2023-04-16T03:59:33.039Z,98650.41
2023-04-16T04:04:36.740Z,98640.03
2023-04-16T04:09:41.083Z,98639.06
2023-04-16T04:14:43.990Z,98631.22
2023-04-16T04:19:59.985Z,98634.81
2023-04-16T04:25:08.542Z,98643.94
2023-04-16T04:30:12.392Z,98653.28
2023-04-16T04:35:16.685Z,98643.72
2023-04-16T04:40:21.582Z,98644.69
2023-04-16T04:45:25.595Z,98648.94
2023-04-16T04:50:29.898Z,98656.03
2023-04-16T04:55:35.036Z,98663.88
2023-04-16T05:00:38.587Z,98655.94
2023-04-16T05:05:42.449Z,98666.19
2023-04-16T05:10:47.016Z,98670.47
2023-04-16T05:15:49.907Z,98668.66
2023-04-16T05:20:53.166Z,98679.28
2023-04-16T05:25:58.591Z,98683.63
2023-04-16T05:31:01.421Z,98685.09
2023-04-16T05:36:04.462Z,98690.41
2023-04-16T05:41:08.601Z,98686.81
2023-04-16T05:46:13.497Z,98705.16
2023-04-16T05:51:16.614Z,98706.84
2023-04-16T05:56:22.828Z,98711.81
2023-04-16T06:01:26.592Z,98711.63
2023-04-16T06:06:29.452Z,98716.06
2023-04-16T06:11:35.166Z,98712.25
2023-04-16T06:16:39.067Z,98718.94
2023-04-16T06:21:41.860Z,98728.38
2023-04-16T06:26:46.239Z,98727.13
2023-04-16T06:31:49.621Z,98735.59
2023-04-16T06:36:52.491Z,98736.88
2023-04-16T06:41:57.191Z,98739.28
2023-04-16T06:47:00.087Z,98740.78
2023-04-16T06:52:05.123Z,98738.97
2023-04-16T06:57:09.985Z,98743.09
2023-04-16T07:02:14.473Z,98745.75
2023-04-16T07:07:17.364Z,98735.28
2023-04-16T07:12:22.865Z,98738.66
2023-04-16T07:17:25.832Z,98746.25
2023-04-16T07:22:28.559Z,98740.16
2023-04-16T07:27:33.055Z,98739.31
2023-04-16T07:32:36.188Z,98747.38
2023-04-16T07:37:38.910Z,98753.56
2023-04-16T07:42:44.051Z,98761.09
2023-04-16T07:47:47.055Z,98756.66
2023-04-16T07:52:50.748Z,98768.31
2023-04-16T07:57:55.278Z,98770.31
2023-04-16T08:02:59.003Z,98780.44
2023-04-16T08:08:01.935Z,98791.16
2023-04-16T08:13:12.184Z,98791.25
2023-04-16T08:18:15.654Z,98793.38
2023-04-16T08:23:18.638Z,98808.75
2023-04-16T08:28:22.842Z,98811.81
2023-04-16T08:33:25.780Z,98812.59
2023-04-16T08:38:28.687Z,98820.44
2023-04-16T08:43:35.190Z,98825.16
2023-04-16T08:48:38.536Z,98835.41
2023-04-16T08:53:49.615Z,98839.00
2023-04-16T08:58:57.398Z,98843.13
2023-04-16T09:04:01.524Z,98844.72
2023-04-16T09:09:08.429Z,98846.34
2023-04-16T09:14:13.688Z,98849.94
2023-04-16T09:19:17.150Z,98850.19
2023-04-16T09:24:20.294Z,98854.81
2023-04-16T09:29:37.888Z,98856.47
2023-04-16T09:34:57.292Z,98865.94
2023-04-16T09:40:02.783Z,98866.66
2023-04-16T09:45:08.232Z,98873.13
2023-04-16T09:50:18.239Z,98879.81
2023-04-16T09:55:24.045Z,98868.72
2023-04-16T10:00:31.763Z,98877.44
2023-04-16T10:05:34.568Z,98882.41
2023-04-16T10:10:37.820Z,98881.84
2023-04-16T10:15:42.305Z,98886.47
2023-04-16T10:20:45.724Z,98898.16
2023-04-16T10:25:50.425Z,98896.19
2023-04-16T10:30:55.840Z,98905.31
2023-04-16T10:36:09.777Z,98910.09
2023-04-16T10:41:12.877Z,98915.16
2023-04-16T10:46:22.610Z,98910.63
2023-04-16T10:51:28.788Z,98907.84
2023-04-16T10:56:34.866Z,98897.06
2023-04-16T11:01:42.905Z,98905.84
2023-04-16T11:07:02.365Z,98905.53
2023-04-16T11:12:10.676Z,98896.44
2023-04-16T11:17:14.864Z,98901.75
2023-04-16T11:22:18.742Z,98905.06
2023-04-16T11:27:21.821Z,98909.41
2023-04-16T11:32:26.006Z,98905.84
2023-04-16T11:37:35.754Z,98911.75
2023-04-16T11:42:41.043Z,98912.31
2023-04-16T11:47:46.919Z,98914.16
2023-04-16T11:52:51.531Z,98916.69
2023-04-16T11:57:54.398Z,98915.06
2023-04-16T12:02:58.969Z,98914.50
2023-04-16T12:08:03.872Z,98921.38
2023-04-16T12:13:12.951Z,98917.56
2023-04-16T12:18:18.802Z,98921.47
2023-04-16T12:23:26.168Z,98925.50
2023-04-16T12:28:33.228Z,98925.97
2023-04-16T12:33:37.436Z,98925.88
2023-04-16T12:38:40.415Z,98927.75
2023-04-16T12:43:43.978Z,98922.84
2023-04-16T12:48:49.720Z,98925.34
2023-04-16T12:53:52.421Z,98918.03
2023-04-16T12:58:55.832Z,98914.22
2023-04-16T13:03:59.965Z,98918.97
2023-04-16T13:09:02.887Z,98919.84
2023-04-16T13:14:06.265Z,98914.91
2023-04-16T13:19:10.720Z,98915.84
2023-04-16T13:24:13.659Z,98914.03
2023-04-16T13:29:16.501Z,98917.63
2023-04-16T13:34:20.873Z,98925.31
2023-04-16T13:39:23.576Z,98920.41
2023-04-16T13:44:26.478Z,98926.63
2023-04-16T13:49:31.489Z,98926.06
2023-04-16T13:54:36.056Z,98925.78
2023-04-16T13:59:39.952Z,98924.34
2023-04-16T14:04:44.995Z,98922.06
2023-04-16T14:09:47.825Z,98918.03
2023-04-16T14:14:53.005Z,98921.00
2023-04-16T14:19:57.324Z,98925.34
2023-04-16T14:25:00.984Z,98935.09
2023-04-16T14:30:03.906Z,98932.28
2023-04-16T14:35:10.263Z,98933.00
2023-04-16T14:40:13.685Z,98932.34
2023-04-16T14:45:16.785Z,98936.28
2023-04-16T14:50:20.851Z,98938.97
2023-04-16T14:55:23.808Z,98938.97
2023-04-16T15:00:28.021Z,98940.66
2023-04-16T15:05:32.586Z,98939.69
2023-04-16T15:10:35.772Z,98942.28
2023-04-16T15:15:38.931Z,98941.91
2023-04-16T15:20:43.037Z,98936.84
2023-04-16T15:25:45.841Z,98938.34
2023-04-16T15:30:48.648Z,98944.03
2023-04-16T15:35:53.301Z,98945.56
2023-04-16T15:40:56.874Z,98943.34
2023-04-16T15:45:59.728Z,98949.53
2023-04-16T15:51:03.980Z,98958.16
2023-04-16T15:56:07.666Z,98957.13
2023-04-16T16:01:10.419Z,98953.69
2023-04-16T16:06:14.766Z,98955.09
2023-04-16T16:11:17.644Z,98959.66
2023-04-16T16:16:21.984Z,98958.91
2023-04-16T16:21:29.034Z,98957.41
2023-04-16T16:26:32.632Z,98969.22
2023-04-16T16:31:35.578Z,98973.59
2023-04-16T16:36:40.573Z,98965.25
2023-04-16T16:41:43.338Z,98971.56
2023-04-16T16:46:47.115Z,98969.53
2023-04-16T16:51:51.302Z,98983.13
2023-04-16T16:56:54.299Z,98977.34
2023-04-16T17:01:57.208Z,98975.88
2023-04-16T17:07:01.588Z,98983.03
2023-04-16T17:12:05.176Z,98984.00
2023-04-16T17:17:07.967Z,98978.66
2023-04-16T17:22:12.072Z,98982.53
2023-04-16T17:27:15.092Z,98984.13
2023-04-16T17:32:18.230Z,98981.69
2023-04-16T17:37:22.472Z,98983.97
2023-04-16T17:42:25.578Z,98991.09
2023-04-16T17:47:28.442Z,98994.97
2023-04-16T17:52:32.652Z,98989.88
2023-04-16T17:57:36.527Z,99001.25
2023-04-16T18:02:40.920Z,99010.22
2023-04-16T18:07:46.897Z,99010.66
2023-04-16T18:12:49.736Z,99007.97
2023-04-16T18:17:52.938Z,99018.94
2023-04-16T18:22:58.356Z,99019.28
2023-04-16T18:28:01.215Z,99019.53
2023-04-16T18:38:13.644Z,99035.19
2023-04-16T18:43:16.424Z,99035.44
2023-04-16T18:48:19.775Z,99040.47
2023-04-16T18:53:23.870Z,99051.13
2023-04-16T18:58:27.146Z,99054.75
2023-04-16T19:03:31.360Z,99061.91
2023-04-16T19:08:35.959Z,99069.28
2023-04-16T19:13:39.257Z,99069.50
2023-04-16T19:18:42.055Z,99070.47
2023-04-16T19:23:46.228Z,99061.84
2023-04-16T19:28:49.271Z,99064.63
2023-04-16T19:33:52.451Z,99059.53
2023-04-16T19:38:57.245Z,99063.38
2023-04-16T19:44:00.124Z,99060.91
2023-04-16T19:49:02.907Z,99063.91
2023-04-16T19:54:07.166Z,99066.91
2023-04-16T19:59:10.259Z,99071.81
2023-04-16T20:04:13.341Z,99073.22
2023-04-16T20:09:19.929Z,99077.06
2023-04-16T20:14:24.856Z,99083.25
2023-04-16T20:19:33.625Z,99077.06
2023-04-16T20:24:38.483Z,99076.31
2023-04-16T20:29:41.881Z,99079.09
2023-04-16T20:34:44.696Z,99079.19
2023-04-16T20:39:50.068Z,99076.63
2023-04-16T20:44:56.196Z,99076.63
2023-04-16T20:50:01.737Z,99069.59
2023-04-16T20:55:07.977Z,99064.19
2023-04-16T21:00:12.045Z,99067.06
2023-04-16T21:05:16.591Z,99064.50
2023-04-16T21:10:20.956Z,99061.84
2023-04-16T21:15:23.692Z,99068.88
2023-04-16T21:20:27.378Z,99064.50
2023-04-16T21:25:33.514Z,99068.88
2023-04-16T21:30:36.518Z,99074.09
2023-04-16T21:35:39.202Z,99074.94
2023-04-16T21:40:43.324Z,99076.00
2023-04-16T21:45:46.174Z,99074.19
2023-04-16T21:50:49.004Z,99068.88
2023-04-16T21:55:53.204Z,99059.19
2023-04-16T22:00:56.084Z,99062.81
2023-04-16T22:06:00.753Z,99055.69
2023-04-16T22:11:05.110Z,99058.44
2023-04-16T22:16:10.747Z,99057.69
2023-04-16T22:21:14.552Z,99051.75
2023-04-16T22:26:18.762Z,99052.81
2023-04-16T22:31:21.574Z,99051.34
2023-04-16T22:36:24.277Z,99049.22
2023-04-16T22:41:28.489Z,99047.50
2023-04-16T22:46:31.375Z,99046.16
2023-04-16T22:51:34.180Z,99049.66
2023-04-16T22:56:38.790Z,99046.91
2023-04-16T23:01:42.149Z,99054.13
2023-04-16T23:06:46.189Z,99049.03
2023-04-16T23:11:50.308Z,99052.81
2023-04-16T23:16:53.050Z,99052.09
2023-04-16T23:21:55.829Z,99058.47
2023-04-16T23:26:59.884Z,99058.25
2023-04-16T23:32:02.758Z,99060.25
2023-04-16T23:37:05.631Z,99056.47
2023-04-16T23:42:09.829Z,99056.47
2023-04-16T23:47:12.591Z,99050.06
2023-04-16T23:52:15.287Z,99051.22
2023-04-16T23:57:19.495Z,99049.72
